Terminal Aerodrome Forecast
Issued by NWS

Home | Current Version | Previous Version | Text Only | Print | Product List | Glossary On
Versions: 1 2 3 4 5 6 7 8 9 10 11 12 13 14 15
590
FTUS42 KTBW 220822 AAA
TAFLAL
TAF AMD
KLAL 220822Z 2208/2306 09004KT 4SM BR FEW010
      TEMPO 2211/2214 1SM BR SCT010
     FM221500 14008KT P6SM SCT015
     FM221700 15009KT P6SM SCT030 SCT120
     FM230100 13004KT 6SM BR VCSH BKN050 OVC120=

USA.gov is the U.S. government's official web portal to all federal, state and local government web resources and services.